createdAt,value
2017-10-13T00:00:17.253Z,8.67
2017-10-13T00:02:45.545Z,8.70
2017-10-13T00:05:13.809Z,8.87
2017-10-13T00:07:42.094Z,8.50
2017-10-13T00:10:10.358Z,7.73
2017-10-13T00:12:38.636Z,8.63
2017-10-13T00:15:06.898Z,8.60
2017-10-13T00:17:34.412Z,8.97
2017-10-13T00:20:01.936Z,9.87
2017-10-13T00:22:29.433Z,10.60
2017-10-13T00:24:57.001Z,10.67
2017-10-13T00:27:24.501Z,11.93
2017-10-13T00:29:52.820Z,10.57
2017-10-13T00:32:20.329Z,9.50
2017-10-13T00:34:48.591Z,10.60
2017-10-13T00:37:16.102Z,9.80
2017-10-13T00:39:43.594Z,9.57
2017-10-13T00:42:11.104Z,10.83
2017-10-13T00:44:38.601Z,8.40
2017-10-13T00:47:06.135Z,9.80
2017-10-13T00:49:33.637Z,9.23
2017-10-13T00:52:01.176Z,9.27
2017-10-13T00:54:28.674Z,8.30
2017-10-13T00:56:56.936Z,7.60
2017-10-13T00:59:24.440Z,8.57
2017-10-13T01:01:51.933Z,9.30
2017-10-13T01:04:19.447Z,9.63
2017-10-13T01:06:46.940Z,9.03
2017-10-13T01:09:14.458Z,8.20
2017-10-13T01:11:41.964Z,9.90
2017-10-13T01:14:09.476Z,7.63
2017-10-13T01:16:36.981Z,8.13
2017-10-13T01:19:04.468Z,7.93
2017-10-13T01:21:31.990Z,8.20
2017-10-13T01:23:59.505Z,8.53
2017-10-13T01:26:27.051Z,8.53
2017-10-13T01:28:54.545Z,7.90
2017-10-13T01:31:22.061Z,7.80
2017-10-13T01:33:49.553Z,7.33
2017-10-13T01:36:17.058Z,7.77
2017-10-13T01:38:45.347Z,8.20
2017-10-13T01:41:12.861Z,8.17
2017-10-13T01:43:40.389Z,8.47
2017-10-13T01:46:07.884Z,7.27
2017-10-13T01:48:35.397Z,7.83
2017-10-13T01:51:02.941Z,7.27
2017-10-13T01:53:30.434Z,7.70
2017-10-13T01:55:57.956Z,7.33
2017-10-13T01:58:25.464Z,8.30
2017-10-13T02:00:53.007Z,8.30
2017-10-13T02:03:20.512Z,7.70
2017-10-13T02:05:48.777Z,7.20
2017-10-13T02:08:17.055Z,6.80
2017-10-13T02:10:45.329Z,7.07
2017-10-13T02:13:13.607Z,7.47
2017-10-13T02:15:41.947Z,9.07
2017-10-13T02:18:09.464Z,8.70
2017-10-13T02:20:36.959Z,6.57
2017-10-13T02:23:04.473Z,8.00
2017-10-13T02:25:31.982Z,8.13
2017-10-13T02:27:59.475Z,9.77
2017-10-13T02:30:27.772Z,9.20
2017-10-13T02:32:55.268Z,7.50
2017-10-13T02:35:22.798Z,7.50
2017-10-13T02:37:50.312Z,6.90
2017-10-13T02:40:18.581Z,9.73
2017-10-13T02:42:46.115Z,8.77
2017-10-13T02:45:13.624Z,8.37
2017-10-13T02:47:41.145Z,8.97
2017-10-13T02:50:09.412Z,8.33
2017-10-13T02:52:36.904Z,7.93
2017-10-13T02:55:05.176Z,7.77
2017-10-13T02:57:33.452Z,8.50
2017-10-13T03:00:01.709Z,8.80
2017-10-13T03:02:29.218Z,8.80
2017-10-13T03:04:56.761Z,9.03
2017-10-13T03:07:24.260Z,9.23
2017-10-13T03:09:51.790Z,9.30
2017-10-13T03:12:19.287Z,9.37
2017-10-13T03:14:46.784Z,8.93
2017-10-13T03:17:14.308Z,9.83
2017-10-13T03:19:41.823Z,9.57
2017-10-13T03:22:09.348Z,10.10
2017-10-13T03:24:37.600Z,9.47
2017-10-13T03:27:05.122Z,9.60
2017-10-13T03:29:32.629Z,10.27
2017-10-13T03:32:00.908Z,9.07
2017-10-13T03:34:29.188Z,9.70
2017-10-13T03:36:57.452Z,8.23
2017-10-13T03:39:25.157Z,9.60
2017-10-13T03:41:52.664Z,10.20
2017-10-13T03:44:20.964Z,9.30
2017-10-13T03:46:49.242Z,10.30
2017-10-13T03:49:16.780Z,10.70
2017-10-13T03:51:45.037Z,9.60
2017-10-13T03:54:12.533Z,10.50
2017-10-13T03:56:40.046Z,8.93
2017-10-13T03:59:07.544Z,9.03
2017-10-13T04:01:35.091Z,10.27
2017-10-13T04:04:03.351Z,10.97
2017-10-13T04:06:30.888Z,9.83
2017-10-13T04:08:58.387Z,9.20
2017-10-13T04:11:25.891Z,7.87
2017-10-13T04:13:53.400Z,10.33
2017-10-13T04:16:21.668Z,10.33
2017-10-13T04:18:49.974Z,10.37
2017-10-13T04:21:17.481Z,11.30
2017-10-13T04:23:45.016Z,11.77
2017-10-13T04:26:12.531Z,11.97
2017-10-13T04:28:40.026Z,12.00
2017-10-13T04:31:07.541Z,10.93
2017-10-13T04:33:35.828Z,10.43
2017-10-13T04:36:03.360Z,10.40
2017-10-13T04:38:31.659Z,10.70
2017-10-13T04:40:59.152Z,8.90
2017-10-13T04:43:26.653Z,10.70
2017-10-13T04:45:55.773Z,9.50
2017-10-13T04:48:23.268Z,10.33
2017-10-13T04:50:50.791Z,9.33
2017-10-13T04:53:18.296Z,10.40
2017-10-13T04:55:45.818Z,8.77
2017-10-13T04:58:13.316Z,9.03
2017-10-13T05:00:41.588Z,9.63
2017-10-13T05:03:10.625Z,7.87
2017-10-13T05:05:38.171Z,10.27
2017-10-13T05:08:06.448Z,8.50
2017-10-13T05:10:34.710Z,9.57
2017-10-13T05:13:02.996Z,7.97
2017-10-13T05:15:31.312Z,9.20
2017-10-13T05:17:58.826Z,10.03
2017-10-13T05:20:26.319Z,8.40
2017-10-13T05:22:53.836Z,9.60
2017-10-13T05:25:22.111Z,8.50
2017-10-13T05:27:50.388Z,8.60
2017-10-13T05:30:18.645Z,7.80
2017-10-13T05:32:46.196Z,8.43
2017-10-13T05:35:13.703Z,7.10
2017-10-13T05:37:41.270Z,7.53
2017-10-13T05:40:08.820Z,8.07
2017-10-13T05:42:36.316Z,7.33
2017-10-13T05:45:03.844Z,8.03
2017-10-13T05:47:31.384Z,8.13
2017-10-13T05:49:58.956Z,7.80
2017-10-13T05:52:26.464Z,8.20
2017-10-13T05:54:53.984Z,8.30
2017-10-13T05:57:21.571Z,8.90
2017-10-13T05:59:49.857Z,8.60
2017-10-13T06:02:17.389Z,9.33
2017-10-13T06:04:44.906Z,9.47
2017-10-13T06:07:12.422Z,8.17
2017-10-13T06:09:39.950Z,8.73
2017-10-13T06:12:07.457Z,9.30
2017-10-13T06:14:35.014Z,10.70
2017-10-13T06:17:03.307Z,9.47
2017-10-13T06:19:31.569Z,7.77
2017-10-13T06:21:59.872Z,7.70
2017-10-13T06:24:27.364Z,8.13
2017-10-13T06:26:54.856Z,8.37
2017-10-13T06:29:22.372Z,6.60
2017-10-13T06:31:49.870Z,8.80
2017-10-13T06:34:18.202Z,6.63
2017-10-13T06:36:45.691Z,7.27
2017-10-13T06:39:13.990Z,7.97
2017-10-13T06:41:42.257Z,7.93
2017-10-13T06:44:10.516Z,7.40
2017-10-13T06:46:38.041Z,6.33
2017-10-13T06:49:05.560Z,5.97
2017-10-13T06:51:33.846Z,7.40
2017-10-13T06:54:01.337Z,8.53
2017-10-13T06:56:28.872Z,7.93
2017-10-13T06:58:56.377Z,8.60
2017-10-13T07:01:23.904Z,8.00
2017-10-13T07:03:51.399Z,7.80
2017-10-13T07:06:19.685Z,8.50
2017-10-13T07:08:47.949Z,8.43
2017-10-13T07:11:16.988Z,8.17
2017-10-13T07:13:44.482Z,7.47
2017-10-13T07:16:12.020Z,7.57
2017-10-13T07:18:39.541Z,6.17
2017-10-13T07:21:07.055Z,6.87
2017-10-13T07:23:34.572Z,5.73
2017-10-13T07:26:02.078Z,6.27
2017-10-13T07:28:29.601Z,6.60
2017-10-13T07:30:57.106Z,5.80
2017-10-13T07:33:25.384Z,5.40
2017-10-13T07:35:53.649Z,4.50
2017-10-13T07:38:21.937Z,5.10
2017-10-13T07:40:50.208Z,4.80
2017-10-13T07:43:18.490Z,4.33
2017-10-13T07:45:46.790Z,4.87
2017-10-13T07:48:14.285Z,4.73
2017-10-13T07:50:41.814Z,5.43
2017-10-13T07:53:09.303Z,4.80
2017-10-13T07:55:36.840Z,4.73
2017-10-13T07:58:04.347Z,4.50
2017-10-13T08:00:31.841Z,4.97
2017-10-13T08:02:59.365Z,5.10
2017-10-13T08:05:27.628Z,4.87
2017-10-13T08:07:55.151Z,5.00
2017-10-13T08:10:22.640Z,4.77
2017-10-13T08:12:50.135Z,4.30
2017-10-13T08:15:17.648Z,4.93
2017-10-13T08:17:45.183Z,4.80
2017-10-13T08:20:12.686Z,3.90
2017-10-13T08:22:40.998Z,4.60
2017-10-13T08:25:08.520Z,5.00
2017-10-13T08:27:36.848Z,4.83
2017-10-13T08:30:04.349Z,3.50
2017-10-13T08:32:32.631Z,4.20
2017-10-13T08:35:00.127Z,4.30
2017-10-13T08:37:27.653Z,3.90
2017-10-13T08:39:55.166Z,4.43
2017-10-13T08:42:22.715Z,4.03
2017-10-13T08:44:50.221Z,3.77
2017-10-13T08:47:18.496Z,3.60
2017-10-13T08:49:46.788Z,3.43
2017-10-13T08:52:14.303Z,3.50
2017-10-13T08:54:41.817Z,2.87
2017-10-13T08:57:09.318Z,3.47
2017-10-13T08:59:36.848Z,3.20
2017-10-13T09:02:04.341Z,2.97
2017-10-13T09:04:31.865Z,3.47
2017-10-13T09:06:59.376Z,2.83
2017-10-13T09:09:27.648Z,4.03
2017-10-13T09:11:55.933Z,4.03
2017-10-13T09:14:23.436Z,3.97
2017-10-13T09:16:50.947Z,3.43
2017-10-13T09:19:18.444Z,4.27
2017-10-13T09:21:51.609Z,4.10
2017-10-13T09:24:19.133Z,3.33
2017-10-13T09:26:47.396Z,3.43
2017-10-13T09:29:16.420Z,3.20
2017-10-13T09:31:44.685Z,4.10
2017-10-13T09:34:12.957Z,3.97
2017-10-13T09:36:41.236Z,3.90
2017-10-13T09:39:09.495Z,4.27
2017-10-13T09:41:37.336Z,4.43
2017-10-13T09:44:04.832Z,3.80
2017-10-13T09:46:33.143Z,3.87
2017-10-13T09:49:00.650Z,4.00
2017-10-13T09:51:28.923Z,4.30
2017-10-13T09:53:56.434Z,3.93
2017-10-13T09:56:23.921Z,3.83
2017-10-13T09:58:51.442Z,3.70
2017-10-13T10:01:18.951Z,3.70
2017-10-13T10:03:46.490Z,4.27
2017-10-13T10:06:13.977Z,4.70
2017-10-13T10:08:42.276Z,4.60
2017-10-13T10:11:09.789Z,4.10
2017-10-13T10:13:37.307Z,3.43
2017-10-13T10:16:04.824Z,3.67
2017-10-13T10:18:33.108Z,4.40
2017-10-13T10:21:01.379Z,4.37
2017-10-13T10:23:29.652Z,3.30
2017-10-13T10:25:57.922Z,4.20
2017-10-13T10:28:25.436Z,3.40
2017-10-13T10:30:52.949Z,3.77
2017-10-13T10:33:21.256Z,3.53
2017-10-13T10:35:48.747Z,3.87
2017-10-13T10:38:16.256Z,4.13
2017-10-13T10:40:43.816Z,3.50
2017-10-13T10:43:11.320Z,3.47
2017-10-13T10:45:38.841Z,3.13
2017-10-13T10:48:06.343Z,2.90
2017-10-13T10:50:34.614Z,2.70
2017-10-13T10:53:02.140Z,2.30
2017-10-13T10:55:29.633Z,2.47
2017-10-13T10:57:57.133Z,2.80
2017-10-13T11:00:24.661Z,2.53
2017-10-13T11:02:52.156Z,2.60
2017-10-13T11:05:19.688Z,1.90
2017-10-13T11:07:47.945Z,2.47
2017-10-13T11:10:15.472Z,2.40
2017-10-13T11:12:43.017Z,1.97
2017-10-13T11:15:10.514Z,1.80
2017-10-13T11:17:38.031Z,1.50
2017-10-13T11:20:05.523Z,1.50
2017-10-13T11:22:33.046Z,1.50
2017-10-13T11:25:00.543Z,1.50
2017-10-13T11:27:28.037Z,1.53
2017-10-13T11:29:55.547Z,1.43
2017-10-13T11:32:23.039Z,1.50
2017-10-13T11:34:51.350Z,2.10
2017-10-13T11:37:18.854Z,1.30
2017-10-13T11:39:46.347Z,1.60
2017-10-13T11:42:13.868Z,1.67
2017-10-13T11:44:41.361Z,1.80
2017-10-13T11:47:08.853Z,1.57
2017-10-13T11:49:36.367Z,1.73
2017-10-13T11:52:03.877Z,1.80
2017-10-13T11:54:31.386Z,2.10
2017-10-13T11:56:58.884Z,1.83
2017-10-13T11:59:26.415Z,2.53
2017-10-13T12:01:53.924Z,2.40
2017-10-13T12:04:21.441Z,1.70
2017-10-13T12:06:48.958Z,1.93
2017-10-13T12:09:17.263Z,1.63
2017-10-13T12:11:44.770Z,1.80
2017-10-13T12:14:12.274Z,1.53
2017-10-13T12:16:39.810Z,1.50
2017-10-13T12:19:07.321Z,1.50
2017-10-13T12:21:34.841Z,1.53
2017-10-13T12:24:02.344Z,1.27
2017-10-13T12:26:29.864Z,1.37
2017-10-13T12:28:57.352Z,1.40
2017-10-13T12:31:24.879Z,0.97
2017-10-13T12:33:52.384Z,1.30
2017-10-13T12:36:19.881Z,1.20
2017-10-13T12:38:47.407Z,1.50
2017-10-13T12:41:14.910Z,1.43
2017-10-13T12:43:42.467Z,1.27
2017-10-13T12:46:09.987Z,1.23
2017-10-13T12:48:37.492Z,1.43
2017-10-13T12:51:04.988Z,1.50
2017-10-13T12:53:32.521Z,1.40
2017-10-13T12:56:00.036Z,1.50
2017-10-13T12:58:27.534Z,1.60
2017-10-13T13:00:55.114Z,3.30
2017-10-13T13:03:22.601Z,2.47
2017-10-13T13:05:50.906Z,3.87
2017-10-13T13:08:18.402Z,2.87
2017-10-13T13:10:45.937Z,2.70
2017-10-13T13:13:13.447Z,2.90
2017-10-13T13:15:41.713Z,2.17
2017-10-13T13:18:10.000Z,1.33
2017-10-13T13:20:38.260Z,1.67
2017-10-13T13:23:05.793Z,1.70
2017-10-13T13:25:33.293Z,1.20
2017-10-13T13:28:00.826Z,1.30
2017-10-13T13:30:29.101Z,1.20
2017-10-13T13:32:56.625Z,1.37
2017-10-13T13:35:24.128Z,0.93
2017-10-13T13:37:52.385Z,1.30
2017-10-13T13:40:20.669Z,1.40
2017-10-13T13:42:48.160Z,1.50
2017-10-13T13:45:15.658Z,1.07
2017-10-13T13:47:43.182Z,1.50
2017-10-13T13:50:10.698Z,1.50
2017-10-13T13:52:38.232Z,1.03
2017-10-13T13:55:05.737Z,1.00
2017-10-13T13:57:33.245Z,1.30
2017-10-13T14:00:00.753Z,1.57
2017-10-13T14:02:29.057Z,1.20
2017-10-13T14:04:56.560Z,1.57
2017-10-13T14:07:24.061Z,1.40
2017-10-13T14:09:51.589Z,1.13
2017-10-13T14:12:19.865Z,1.80
2017-10-13T14:14:48.164Z,1.20
2017-10-13T14:17:15.681Z,1.50
2017-10-13T14:19:43.278Z,1.37
2017-10-13T14:22:10.786Z,1.20
2017-10-13T14:24:38.280Z,4.67
2017-10-13T14:27:05.815Z,1.63
2017-10-13T14:29:34.090Z,1.93
2017-10-13T14:32:01.699Z,1.73
2017-10-13T14:34:29.216Z,1.77
2017-10-13T14:36:57.509Z,1.37
2017-10-13T14:39:25.032Z,1.23
2017-10-13T14:41:54.073Z,1.83
2017-10-13T14:44:21.578Z,1.90
2017-10-13T14:46:49.105Z,1.70
2017-10-13T14:49:16.599Z,1.20
2017-10-13T14:51:44.860Z,1.83
2017-10-13T14:54:12.401Z,2.83
2017-10-13T14:56:39.907Z,3.30
2017-10-13T14:59:08.196Z,1.50
2017-10-13T15:01:35.720Z,2.30
2017-10-13T15:04:03.254Z,2.33
2017-10-13T15:06:30.781Z,1.60
2017-10-13T15:08:58.330Z,1.33
2017-10-13T15:11:25.865Z,1.23
2017-10-13T15:13:54.140Z,1.50
2017-10-13T15:16:22.436Z,1.80
2017-10-13T15:18:49.948Z,1.60
2017-10-13T15:21:17.465Z,1.83
2017-10-13T15:23:44.980Z,1.27
2017-10-13T15:26:18.194Z,1.53
2017-10-13T15:31:52.852Z,1.60
2017-10-13T15:34:25.969Z,1.47
2017-10-13T15:36:53.483Z,2.50
2017-10-13T15:39:27.407Z,1.77
2017-10-13T15:42:00.697Z,1.43
2017-10-13T15:44:28.208Z,1.77
2017-10-13T15:47:01.408Z,1.63
2017-10-13T15:49:34.680Z,2.30
2017-10-13T15:52:07.911Z,2.07
2017-10-13T15:54:36.210Z,1.53
2017-10-13T15:57:03.720Z,1.80
2017-10-13T15:59:31.258Z,1.57
2017-10-13T16:01:58.778Z,2.30
2017-10-13T16:04:26.268Z,1.87
2017-10-13T16:06:53.796Z,1.70
2017-10-13T16:09:21.294Z,2.33
2017-10-13T16:11:48.813Z,1.77
2017-10-13T16:14:16.317Z,1.43
2017-10-13T16:16:43.857Z,2.60
2017-10-13T16:19:11.360Z,2.40
2017-10-13T16:21:39.629Z,2.43
2017-10-13T16:24:07.164Z,2.40
2017-10-13T16:26:34.676Z,3.40
2017-10-13T16:29:02.223Z,2.40
2017-10-13T16:31:29.721Z,1.93
2017-10-13T16:33:57.246Z,2.87
2017-10-13T16:36:24.793Z,2.40
2017-10-13T16:38:53.083Z,4.10
2017-10-13T16:41:20.607Z,2.63
2017-10-13T16:43:48.138Z,3.00
2017-10-13T16:46:15.652Z,3.07
2017-10-13T16:48:43.145Z,2.60
2017-10-13T16:51:10.629Z,2.90
2017-10-13T16:53:38.149Z,2.20
2017-10-13T16:56:05.676Z,2.20
2017-10-13T16:58:33.178Z,2.27
2017-10-13T17:01:00.694Z,2.70
2017-10-13T17:03:28.222Z,4.70
2017-10-13T17:05:56.542Z,12.80
2017-10-13T17:08:24.070Z,8.90
2017-10-13T17:10:52.338Z,4.23
2017-10-13T17:13:20.764Z,2.80
2017-10-13T17:15:48.275Z,2.70
2017-10-13T17:18:16.629Z,2.67
2017-10-13T17:20:44.131Z,2.63
2017-10-13T17:23:11.657Z,2.83
2017-10-13T17:25:39.161Z,2.80
2017-10-13T17:28:06.711Z,2.80
2017-10-13T17:30:34.226Z,2.93
2017-10-13T17:33:01.754Z,2.60
2017-10-13T17:35:29.285Z,2.70
2017-10-13T17:37:56.782Z,3.30
2017-10-13T17:40:24.347Z,2.87
2017-10-13T17:42:51.921Z,2.73
2017-10-13T17:45:19.448Z,3.00
2017-10-13T17:47:46.949Z,3.43
2017-10-13T17:50:15.255Z,3.33
2017-10-13T17:52:42.761Z,2.90
2017-10-13T17:55:10.293Z,3.70
2017-10-13T17:57:37.792Z,3.10
2017-10-13T18:00:06.083Z,4.50
2017-10-13T18:02:33.652Z,3.53
2017-10-13T18:05:01.443Z,3.63
2017-10-13T18:07:28.974Z,3.50
2017-10-13T18:09:56.494Z,4.10
2017-10-13T18:12:24.053Z,4.00
2017-10-13T18:14:52.336Z,3.97
2017-10-13T18:17:20.630Z,4.57
2017-10-13T18:19:48.939Z,3.70
2017-10-13T18:22:16.490Z,3.50
2017-10-13T18:24:44.009Z,3.73
2017-10-13T18:27:12.322Z,4.50
2017-10-13T18:29:39.901Z,5.30
2017-10-13T18:32:07.424Z,4.87
2017-10-13T18:34:34.956Z,5.60
2017-10-13T18:37:03.235Z,5.80
2017-10-13T18:39:31.537Z,5.73
2017-10-13T18:41:59.098Z,6.20
2017-10-13T18:44:26.661Z,5.40
2017-10-13T18:46:54.177Z,5.00
2017-10-13T18:49:22.498Z,4.87
2017-10-13T18:51:50.016Z,4.90
2017-10-13T18:54:18.301Z,4.80
2017-10-13T18:56:46.604Z,5.30
2017-10-13T18:59:14.112Z,4.77
2017-10-13T19:01:41.667Z,4.97
2017-10-13T19:04:09.940Z,5.00
2017-10-13T19:06:37.491Z,5.00
2017-10-13T19:09:05.002Z,4.80
2017-10-13T19:11:32.581Z,5.87
2017-10-13T19:14:00.088Z,5.83
2017-10-13T19:16:28.372Z,5.53
2017-10-13T19:18:56.676Z,6.23
2017-10-13T19:21:24.187Z,7.10
2017-10-13T19:23:52.525Z,6.00
2017-10-13T19:26:20.050Z,5.87
2017-10-13T19:28:48.417Z,6.13
2017-10-13T19:31:16.750Z,5.97
2017-10-13T19:33:44.262Z,6.33
2017-10-13T19:36:12.624Z,6.30
2017-10-13T19:38:40.525Z,6.93
2017-10-13T19:41:09.313Z,7.07
2017-10-13T19:43:37.495Z,6.53
2017-10-13T19:46:05.462Z,7.43
2017-10-13T19:48:33.423Z,7.73
2017-10-13T19:51:01.391Z,6.60
2017-10-13T19:53:29.361Z,6.63
2017-10-13T19:55:57.329Z,6.30
2017-10-13T19:58:25.296Z,6.90
2017-10-13T20:00:53.265Z,7.20
2017-10-13T20:03:21.231Z,7.33
2017-10-13T20:05:49.209Z,7.20
2017-10-13T20:08:17.063Z,7.47
2017-10-13T20:10:45.854Z,8.23
2017-10-13T20:13:14.956Z,7.27
2017-10-13T20:15:43.236Z,7.70
2017-10-13T20:18:12.008Z,8.80
2017-10-13T20:20:41.542Z,7.80
2017-10-13T20:23:10.307Z,7.73
2017-10-13T20:25:38.291Z,8.13
2017-10-13T20:28:07.162Z,7.80
2017-10-13T20:30:35.739Z,7.37
2017-10-13T20:33:03.391Z,7.87
2017-10-13T20:35:31.062Z,8.70
2017-10-13T20:37:58.641Z,7.80
2017-10-13T20:40:26.175Z,9.43
2017-10-13T20:42:53.703Z,8.30
2017-10-13T20:45:22.001Z,8.53
2017-10-13T20:47:49.526Z,8.30
2017-10-13T20:50:17.077Z,9.27
2017-10-13T20:52:46.082Z,8.90
2017-10-13T20:55:14.369Z,9.00
2017-10-13T20:57:42.638Z,8.40
2017-10-13T21:00:10.901Z,9.13
2017-10-13T21:02:38.429Z,8.40
2017-10-13T21:05:05.969Z,10.33
2017-10-13T21:07:33.487Z,9.67
2017-10-13T21:10:01.764Z,9.60
2017-10-13T21:12:30.177Z,9.57
2017-10-13T21:14:57.710Z,9.97
2017-10-13T21:17:25.237Z,10.33
2017-10-13T21:19:52.777Z,10.47
2017-10-13T21:22:20.291Z,9.97
2017-10-13T21:24:47.819Z,10.03
2017-10-13T21:27:15.344Z,8.87
2017-10-13T21:29:42.844Z,10.00
2017-10-13T21:32:11.149Z,8.87
2017-10-13T21:34:38.677Z,7.87
2017-10-13T21:37:06.946Z,8.13
2017-10-13T21:39:35.244Z,9.10
2017-10-13T21:42:02.735Z,8.37
2017-10-13T21:44:30.252Z,7.50
2017-10-13T21:46:58.554Z,8.03
2017-10-13T21:49:26.101Z,8.90
2017-10-13T21:51:53.636Z,7.67
2017-10-13T21:54:21.904Z,6.57
2017-10-13T21:56:50.201Z,7.47
2017-10-13T21:59:17.694Z,7.13
2017-10-13T22:01:45.209Z,7.60
2017-10-13T22:04:13.519Z,8.20
2017-10-13T22:06:41.038Z,8.50
2017-10-13T22:09:09.317Z,8.13
2017-10-13T22:11:37.608Z,8.00
2017-10-13T22:14:05.126Z,7.57
2017-10-13T22:16:32.664Z,7.70
2017-10-13T22:19:00.216Z,8.33
2017-10-13T22:21:27.730Z,7.30
2017-10-13T22:23:55.250Z,7.80
2017-10-13T22:26:22.778Z,8.83
2017-10-13T22:28:50.308Z,8.30
2017-10-13T22:31:17.811Z,8.30
2017-10-13T22:33:45.318Z,7.20
2017-10-13T22:36:12.829Z,6.47
2017-10-13T22:38:40.336Z,7.00
2017-10-13T22:41:07.845Z,7.23
2017-10-13T22:43:35.344Z,9.10
2017-10-13T22:46:02.871Z,9.50
2017-10-13T22:48:30.368Z,9.00
2017-10-13T22:50:57.861Z,9.40
2017-10-13T22:53:25.407Z,9.77
2017-10-13T22:55:52.901Z,9.30
2017-10-13T22:58:20.422Z,8.40
2017-10-13T23:00:47.932Z,9.23
2017-10-13T23:03:16.193Z,9.20
2017-10-13T23:05:43.719Z,10.07
2017-10-13T23:08:11.230Z,9.40
2017-10-13T23:10:39.538Z,9.00
2017-10-13T23:13:07.088Z,10.00
2017-10-13T23:15:34.604Z,8.17
2017-10-13T23:18:02.197Z,8.20
2017-10-13T23:20:29.734Z,8.90
2017-10-13T23:22:58.013Z,8.63
2017-10-13T23:25:26.275Z,9.33
2017-10-13T23:27:53.778Z,9.33
2017-10-13T23:30:21.308Z,8.37
2017-10-13T23:32:49.595Z,7.63
2017-10-13T23:35:17.124Z,8.50
2017-10-13T23:37:45.384Z,9.30
2017-10-13T23:40:12.901Z,8.50
2017-10-13T23:42:40.424Z,7.97
2017-10-13T23:45:08.692Z,7.67
2017-10-13T23:47:36.973Z,8.63
2017-10-13T23:50:05.244Z,8.23
2017-10-13T23:52:33.543Z,7.70
2017-10-13T23:55:01.043Z,7.60
2017-10-13T23:57:28.536Z,8.17
2017-10-13T23:59:56.817Z,7.63
